This is the latest recevied weather packets stored in our database for station/object K4GSL. If no packets are shown the sender has not sent any weather packets the latest 10 day(s).
| Time | Temp. | Humidity | Pressure | Rain* | Wind** | Luminosity | Snow |
|---|---|---|---|---|---|---|---|
| 1778095261 | 17.78° C | 78% | 1024.7 hPa | 0 mm | - | 294 W/m² | - |
| 1778094957 | 18.33° C | 77% | 1024.9 hPa | 0 mm | - | 244 W/m² | - |
| 1778094653 | 17.78° C | 78% | 1024.9 hPa | 0 mm | - | 270 W/m² | - |
| 1778094351 | 17.78° C | 78% | 1024.9 hPa | 0 mm | - | 247 W/m² | - |
| 1778094048 | 17.78° C | 78% | 1025 hPa | 0 mm | - | 466 W/m² | - |
| 1778093745 | 18.33° C | 76% | 1024.9 hPa | 0 mm | - | 197 W/m² | - |
| 1778093442 | 17.78° C | 78% | 1025 hPa | 0 mm | - | 444 W/m² | - |
| 1778093139 | 18.33° C | 77% | 1024.8 hPa | 0 mm | - | 188 W/m² | - |
| 1778092836 | 18.89° C | 76% | 1024.6 hPa | 0 mm | - | 232 W/m² | - |
| 1778092532 | 18.33° C | 76% | 1024.7 hPa | 0 mm | - | 245 W/m² | - |
| 1778092229 | 18.33° C | 77% | 1024.6 hPa | 0 mm | - | 252 W/m² | - |
| 1778091926 | 17.78° C | 77% | 1024.8 hPa | 0 mm | - | 390 W/m² | - |
| 1778091623 | 17.78° C | 79% | 1024.7 hPa | 0 mm | - | 511 W/m² | - |
| 1778091321 | 18.33° C | 77% | 1024.7 hPa | 0 mm | - | 113 W/m² | - |
| 1778091018 | 18.89° C | 75% | 1024.6 hPa | 0 mm | - | 680 W/m² | - |
| 1778090714 | 17.78° C | 77% | 1024.7 hPa | 0 mm | - | 648 W/m² | - |
| 1778090411 | 17.78° C | 77% | 1024.7 hPa | 0 mm | - | 634 W/m² | - |
| 1778090108 | 17.78° C | 76% | 1024.8 hPa | 0 mm | - | 609 W/m² | - |
| 1778089804 | 17.78° C | 79% | 1024.8 hPa | 0 mm | - | 591 W/m² | - |
| 1778089503 | 17.22° C | 80% | 1024.6 hPa | 0 mm | - | 589 W/m² | - |
| 1778089198 | 17.22° C | 79% | 1024.8 hPa | 0 mm | - | 576 W/m² | - |
| 1778088896 | 17.78° C | 80% | 1024.6 hPa | 0 mm | - | 250 W/m² | - |
| 1778088592 | 16.67° C | 82% | 1024.4 hPa | 0 mm | - | 547 W/m² | - |
| 1778088290 | 16.67° C | 83% | 1024.7 hPa | 0 mm | - | 167 W/m² | - |
| 1778087986 | 16.11° C | 83% | 1024.6 hPa | 0 mm | - | 86 W/m² | - |
* Rain latest hour (hover to see other rain measurements)
** Current wind speed in m/s (hover to see current wind gust speed)